sensor_id;sensor_type;location;lat;lon;timestamp;pressure;altitude;pressure_sealevel;temperature;humidity
8294;BME280;4185;41.506;24.938;2023-04-04T00:01:50;92193.53;;;8.78;100.00
8294;BME280;4185;41.506;24.938;2023-04-04T00:04:17;92202.88;;;8.77;100.00
8294;BME280;4185;41.506;24.938;2023-04-04T00:06:44;92195.50;;;8.77;100.00
8294;BME280;4185;41.506;24.938;2023-04-04T00:09:12;92163.47;;;8.81;100.00
8294;BME280;4185;41.506;24.938;2023-04-04T00:11:41;92187.13;;;8.81;100.00
8294;BME280;4185;41.506;24.938;2023-04-04T00:14:07;92182.41;;;8.81;100.00
8294;BME280;4185;41.506;24.938;2023-04-04T00:16:34;92178.25;;;8.80;100.00
8294;BME280;4185;41.506;24.938;2023-04-04T00:19:01;92181.69;;;8.81;100.00
8294;BME280;4185;41.506;24.938;2023-04-04T00:21:28;92186.84;;;8.84;100.00
8294;BME280;4185;41.506;24.938;2023-04-04T00:23:56;92176.28;;;8.81;100.00
8294;BME280;4185;41.506;24.938;2023-04-04T00:26:23;92182.41;;;8.81;100.00
8294;BME280;4185;41.506;24.938;2023-04-04T00:28:52;92167.44;;;8.80;100.00
8294;BME280;4185;41.506;24.938;2023-04-04T00:31:18;92160.75;;;8.81;100.00
8294;BME280;4185;41.506;24.938;2023-04-04T00:33:46;92155.34;;;8.81;100.00
8294;BME280;4185;41.506;24.938;2023-04-04T00:36:13;92168.16;;;8.81;100.00
8294;BME280;4185;41.506;24.938;2023-04-04T00:38:40;92176.28;;;8.81;100.00
8294;BME280;4185;41.506;24.938;2023-04-04T00:41:07;92170.13;;;8.80;100.00
8294;BME280;4185;41.506;24.938;2023-04-04T00:43:34;92162.25;;;8.82;100.00
8294;BME280;4185;41.506;24.938;2023-04-04T00:46:02;92172.56;;;8.84;100.00
8294;BME280;4185;41.506;24.938;2023-04-04T00:48:29;92155.56;;;8.83;100.00
8294;BME280;4185;41.506;24.938;2023-04-04T00:50:56;92157.56;;;8.83;100.00
8294;BME280;4185;41.506;24.938;2023-04-04T00:53:23;92152.88;;;8.83;100.00
8294;BME280;4185;41.506;24.938;2023-04-04T00:55:50;92155.81;;;8.85;100.00
8294;BME280;4185;41.506;24.938;2023-04-04T00:58:17;92155.81;;;8.85;100.00
8294;BME280;4185;41.506;24.938;2023-04-04T01:00:44;92158.75;;;8.87;100.00
8294;BME280;4185;41.506;24.938;2023-04-04T01:03:12;92160.22;;;8.88;100.00
8294;BME280;4185;41.506;24.938;2023-04-04T01:05:39;92156.28;;;8.89;100.00
8294;BME280;4185;41.506;24.938;2023-04-04T01:08:06;92152.31;;;8.90;100.00
8294;BME280;4185;41.506;24.938;2023-04-04T01:10:33;92144.88;;;8.96;100.00
8294;BME280;4185;41.506;24.938;2023-04-04T01:13:00;92156.16;;;9.00;100.00
8294;BME280;4185;41.506;24.938;2023-04-04T01:15:27;92152.22;;;9.01;100.00
8294;BME280;4185;41.506;24.938;2023-04-04T01:17:58;92144.31;;;9.03;100.00
8294;BME280;4185;41.506;24.938;2023-04-04T01:20:29;92143.31;;;9.06;100.00
8294;BME280;4185;41.506;24.938;2023-04-04T01:22:58;92150.91;;;9.08;100.00
8294;BME280;4185;41.506;24.938;2023-04-04T01:25:29;92150.91;;;9.08;100.00
8294;BME280;4185;41.506;24.938;2023-04-04T01:27:58;92147.53;;;9.02;100.00
8294;BME280;4185;41.506;24.938;2023-04-04T01:30:32;92146.28;;;9.03;100.00
8294;BME280;4185;41.506;24.938;2023-04-04T01:33:06;92153.91;;;9.04;100.00
8294;BME280;4185;41.506;24.938;2023-04-04T01:35:39;92161.56;;;9.00;100.00
8294;BME280;4185;41.506;24.938;2023-04-04T01:38:13;92157.41;;;8.99;100.00
8294;BME280;4185;41.506;24.938;2023-04-04T01:40:48;92157.91;;;8.98;100.00
8294;BME280;4185;41.506;24.938;2023-04-04T01:43:15;92157.91;;;8.98;100.00
8294;BME280;4185;41.506;24.938;2023-04-04T01:45:41;92156.16;;;9.00;100.00
8294;BME280;4185;41.506;24.938;2023-04-04T01:48:09;92150.97;;;9.02;100.00
8294;BME280;4185;41.506;24.938;2023-04-04T01:50:36;92151.94;;;9.05;100.00
8294;BME280;4185;41.506;24.938;2023-04-04T01:53:03;92136.41;;;9.05;100.00
8294;BME280;4185;41.506;24.938;2023-04-04T01:55:30;92143.81;;;9.05;100.00
8294;BME280;4185;41.506;24.938;2023-04-04T01:57:58;92133.94;;;9.07;100.00
8294;BME280;4185;41.506;24.938;2023-04-04T02:00:25;92130.75;;;9.03;100.00
8294;BME280;4185;41.506;24.938;2023-04-04T02:02:52;92138.44;;;8.99;100.00
8294;BME280;4185;41.506;24.938;2023-04-04T02:05:18;92126.66;;;8.97;100.00
8294;BME280;4185;41.506;24.938;2023-04-04T02:07:48;92124.97;;;8.94;100.00
8294;BME280;4185;41.506;24.938;2023-04-04T02:10:16;92110.00;;;8.87;100.00
8294;BME280;4185;41.506;24.938;2023-04-04T02:12:42;92124.72;;;8.92;100.00
8294;BME280;4185;41.506;24.938;2023-04-04T02:15:11;92120.53;;;8.96;100.00
8294;BME280;4185;41.506;24.938;2023-04-04T02:17:38;92124.44;;;8.95;100.00
8294;BME280;4185;41.506;24.938;2023-04-04T02:20:06;92124.97;;;8.94;100.00
8294;BME280;4185;41.506;24.938;2023-04-04T02:22:36;92109.47;;;8.94;100.00
8294;BME280;4185;41.506;24.938;2023-04-04T02:25:03;92116.56;;;8.97;100.00
8294;BME280;4185;41.506;24.938;2023-04-04T02:27:30;92104.28;;;8.96;100.00
8294;BME280;4185;41.506;24.938;2023-04-04T02:29:56;92098.13;;;8.96;100.00
8294;BME280;4185;41.506;24.938;2023-04-04T02:32:24;92101.28;;;9.00;100.00
8294;BME280;4185;41.506;24.938;2023-04-04T02:34:51;92105.97;;;8.99;100.00
8294;BME280;4185;41.506;24.938;2023-04-04T02:37:18;92094.34;;;9.04;100.00
8294;BME280;4185;41.506;24.938;2023-04-04T02:39:45;92088.19;;;9.04;100.00
8294;BME280;4185;41.506;24.938;2023-04-04T02:42:11;92090.88;;;9.04;100.00
8294;BME280;4185;41.506;24.938;2023-04-04T02:44:38;92075.81;;;9.08;100.00
8294;BME280;4185;41.506;24.938;2023-04-04T02:47:05;92084.44;;;9.07;100.00
8294;BME280;4185;41.506;24.938;2023-04-04T02:49:33;92082.47;;;9.07;100.00
8294;BME280;4185;41.506;24.938;2023-04-04T02:52:00;92085.41;;;9.09;100.00
8294;BME280;4185;41.506;24.938;2023-04-04T02:54:27;92082.72;;;9.09;100.00
8294;BME280;4185;41.506;24.938;2023-04-04T02:56:54;92081.97;;;9.09;100.00
8294;BME280;4185;41.506;24.938;2023-04-04T02:59:20;92077.34;;;9.04;100.00
8294;BME280;4185;41.506;24.938;2023-04-04T03:01:47;92070.38;;;9.08;100.00
8294;BME280;4185;41.506;24.938;2023-04-04T03:04:14;92074.34;;;9.07;100.00
8294;BME280;4185;41.506;24.938;2023-04-04T03:06:42;92072.16;;;9.06;100.00
8294;BME280;4185;41.506;24.938;2023-04-04T03:09:09;92087.88;;;9.07;100.00
8294;BME280;4185;41.506;24.938;2023-04-04T03:11:36;92087.38;;;9.09;100.00
8294;BME280;4185;41.506;24.938;2023-04-04T03:14:03;92092.06;;;9.08;100.00
8294;BME280;4185;41.506;24.938;2023-04-04T03:16:29;92091.13;;;9.06;100.00
8294;BME280;4185;41.506;24.938;2023-04-04T03:18:56;92086.22;;;9.04;100.00
8294;BME280;4185;41.506;24.938;2023-04-04T03:21:23;92084.72;;;9.03;100.00
8294;BME280;4185;41.506;24.938;2023-04-04T03:23:51;92079.31;;;9.03;100.00
8294;BME280;4185;41.506;24.938;2023-04-04T03:26:18;92086.94;;;9.05;100.00
8294;BME280;4185;41.506;24.938;2023-04-04T03:28:45;92093.31;;;9.07;100.00
8294;BME280;4185;41.506;24.938;2023-04-04T03:31:11;92081.22;;;9.08;100.00
8294;BME280;4185;41.506;24.938;2023-04-04T03:33:38;92084.91;;;9.11;100.00
8294;BME280;4185;41.506;24.938;2023-04-04T03:36:09;92088.88;;;9.10;100.00
8294;BME280;4185;41.506;24.938;2023-04-04T03:38:36;92100.19;;;9.08;100.00
8294;BME280;4185;41.506;24.938;2023-04-04T03:41:04;92082.41;;;9.13;100.00
8294;BME280;4185;41.506;24.938;2023-04-04T03:43:31;92083.13;;;9.13;100.00
8294;BME280;4185;41.506;24.938;2023-04-04T03:45:59;92080.22;;;9.11;100.00
8294;BME280;4185;41.506;24.938;2023-04-04T03:48:26;92080.28;;;9.06;100.00
8294;BME280;4185;41.506;24.938;2023-04-04T03:50:53;92086.63;;;9.08;100.00
8294;BME280;4185;41.506;24.938;2023-04-04T03:53:21;92093.25;;;9.13;100.00
8294;BME280;4185;41.506;24.938;2023-04-04T03:55:48;92094.72;;;9.14;100.00
8294;BME280;4185;41.506;24.938;2023-04-04T03:58:16;92095.28;;;9.07;100.00
8294;BME280;4185;41.506;24.938;2023-04-04T04:00:43;92106.63;;;9.05;100.00
8294;BME280;4185;41.506;24.938;2023-04-04T04:03:09;92108.63;;;9.05;100.00
8294;BME280;4185;41.506;24.938;2023-04-04T04:05:36;92101.44;;;9.07;100.00
8294;BME280;4185;41.506;24.938;2023-04-04T04:08:03;92102.88;;;9.08;100.00
8294;BME280;4185;41.506;24.938;2023-04-04T04:10:31;92091.16;;;9.00;100.00
8294;BME280;4185;41.506;24.938;2023-04-04T04:12:58;92103.13;;;9.10;100.00
8294;BME280;4185;41.506;24.938;2023-04-04T04:15:27;92109.00;;;9.14;100.00
8294;BME280;4185;41.506;24.938;2023-04-04T04:17:53;92098.09;;;9.20;100.00
8294;BME280;4185;41.506;24.938;2023-04-04T04:20:21;92105.19;;;9.23;100.00
8294;BME280;4185;41.506;24.938;2023-04-04T04:22:48;92107.16;;;9.22;100.00
8294;BME280;4185;41.506;24.938;2023-04-04T04:25:15;92107.16;;;9.22;100.00
8294;BME280;4185;41.506;24.938;2023-04-04T04:27:42;92103.53;;;9.20;100.00
8294;BME280;4185;41.506;24.938;2023-04-04T04:30:09;92112.81;;;9.24;100.00
8294;BME280;4185;41.506;24.938;2023-04-04T04:32:38;92108.19;;;9.19;100.00
8294;BME280;4185;41.506;24.938;2023-04-04T04:35:06;92102.78;;;9.19;100.00
8294;BME280;4185;41.506;24.938;2023-04-04T04:37:33;92108.19;;;9.19;100.00
8294;BME280;4185;41.506;24.938;2023-04-04T04:40:00;92110.38;;;9.21;100.00
8294;BME280;4185;41.506;24.938;2023-04-04T04:42:27;92109.66;;;9.20;100.00
8294;BME280;4185;41.506;24.938;2023-04-04T04:44:54;92115.88;;;9.15;100.00
8294;BME280;4185;41.506;24.938;2023-04-04T04:47:21;92115.63;;;9.13;100.00
8294;BME280;4185;41.506;24.938;2023-04-04T04:49:49;92114.41;;;9.14;100.00
8294;BME280;4185;41.506;24.938;2023-04-04T04:52:16;92114.63;;;9.16;100.00
8294;BME280;4185;41.506;24.938;2023-04-04T04:54:43;92113.38;;;9.17;100.00
8294;BME280;4185;41.506;24.938;2023-04-04T04:57:10;92106.28;;;9.14;100.00
8294;BME280;4185;41.506;24.938;2023-04-04T04:59:37;92114.78;;;9.24;100.00
8294;BME280;4185;41.506;24.938;2023-04-04T05:02:06;92105.16;;;9.28;100.00
8294;BME280;4185;41.506;24.938;2023-04-04T05:04:32;92114.97;;;9.31;100.00
8294;BME280;4185;41.506;24.938;2023-04-04T05:07:01;92120.09;;;9.35;100.00
8294;BME280;4185;41.506;24.938;2023-04-04T05:09:28;92123.88;;;9.26;100.00
8294;BME280;4185;41.506;24.938;2023-04-04T05:11:54;92123.44;;;9.22;100.00
8294;BME280;4185;41.506;24.938;2023-04-04T05:14:21;92123.94;;;9.21;100.00
8294;BME280;4185;41.506;24.938;2023-04-04T05:16:48;92119.03;;;9.19;100.00
8294;BME280;4185;41.506;24.938;2023-04-04T05:19:15;92126.66;;;9.21;100.00
8294;BME280;4185;41.506;24.938;2023-04-04T05:21:42;92133.81;;;9.18;100.00
8294;BME280;4185;41.506;24.938;2023-04-04T05:24:10;92122.75;;;9.16;100.00
8294;BME280;4185;41.506;24.938;2023-04-04T05:26:37;92141.72;;;9.16;100.00
8294;BME280;4185;41.506;24.938;2023-04-04T05:29:03;92139.72;;;9.17;100.00
8294;BME280;4185;41.506;24.938;2023-04-04T05:31:30;92146.69;;;9.12;100.00
8294;BME280;4185;41.506;24.938;2023-04-04T05:33:57;92157.78;;;9.09;100.00
8294;BME280;4185;41.506;24.938;2023-04-04T05:36:24;92155.56;;;9.13;100.00
8294;BME280;4185;41.506;24.938;2023-04-04T05:38:52;92165.88;;;9.14;100.00
8294;BME280;4185;41.506;24.938;2023-04-04T05:41:20;92155.97;;;9.17;100.00
8294;BME280;4185;41.506;24.938;2023-04-04T05:43:48;92162.38;;;9.19;100.00
8294;BME280;4185;41.506;24.938;2023-04-04T05:46:15;92162.38;;;9.19;100.00
8294;BME280;4185;41.506;24.938;2023-04-04T05:48:41;92164.56;;;9.21;100.00
8294;BME280;4185;41.506;24.938;2023-04-04T05:51:08;92166.78;;;9.22;100.00
8294;BME280;4185;41.506;24.938;2023-04-04T05:53:35;92164.00;;;9.28;100.00
8294;BME280;4185;41.506;24.938;2023-04-04T05:56:02;92174.34;;;9.29;100.00
8294;BME280;4185;41.506;24.938;2023-04-04T05:58:31;92173.06;;;9.30;100.00
8294;BME280;4185;41.506;24.938;2023-04-04T06:00:58;92165.19;;;9.32;100.00
8294;BME280;4185;41.506;24.938;2023-04-04T06:03:27;92166.59;;;9.39;100.00
8294;BME280;4185;41.506;24.938;2023-04-04T06:05:54;92168.50;;;9.44;100.00
8294;BME280;4185;41.506;24.938;2023-04-04T06:08:21;92151.44;;;9.49;100.00
8294;BME280;4185;41.506;24.938;2023-04-04T06:10:48;92161.00;;;9.55;100.00
8294;BME280;4185;41.506;24.938;2023-04-04T06:13:15;92149.34;;;9.60;100.00
8294;BME280;4185;41.506;24.938;2023-04-04T06:15:43;92152.50;;;9.64;100.00
8294;BME280;4185;41.506;24.938;2023-04-04T06:18:09;92159.69;;;9.62;100.00
8294;BME280;4185;41.506;24.938;2023-04-04T06:20:36;92151.25;;;9.65;100.00
8294;BME280;4185;41.506;24.938;2023-04-04T06:23:03;92162.31;;;9.67;100.00
8294;BME280;4185;41.506;24.938;2023-04-04T06:25:30;92154.41;;;9.69;100.00
8294;BME280;4185;41.506;24.938;2023-04-04T06:27:57;92155.66;;;9.68;100.00
8294;BME280;4185;41.506;24.938;2023-04-04T06:30:25;92151.41;;;9.73;100.00
8294;BME280;4185;41.506;24.938;2023-04-04T06:32:53;92147.13;;;9.77;100.00
8294;BME280;4185;41.506;24.938;2023-04-04T06:35:20;92149.28;;;9.84;100.00
8294;BME280;4185;41.506;24.938;2023-04-04T06:37:46;92153.81;;;9.95;100.00
8294;BME280;4185;41.506;24.938;2023-04-04T06:40:13;92157.69;;;10.00;100.00
8294;BME280;4185;41.506;24.938;2023-04-04T06:42:46;92151.78;;;10.01;100.00
8294;BME280;4185;41.506;24.938;2023-04-04T06:45:14;92158.44;;;10.00;100.00
8294;BME280;4185;41.506;24.938;2023-04-04T06:47:42;92149.38;;;9.98;100.00
8294;BME280;4185;41.506;24.938;2023-04-04T06:50:11;92148.41;;;9.95;100.00
8294;BME280;4185;41.506;24.938;2023-04-04T06:52:38;92149.38;;;9.98;100.00
8294;BME280;4185;41.506;24.938;2023-04-04T06:55:05;92147.38;;;9.98;99.78
8294;BME280;4185;41.506;24.938;2023-04-04T06:57:32;92147.53;;;10.06;99.30
8294;BME280;4185;41.506;24.938;2023-04-04T06:59:59;92150.69;;;10.10;99.60
8294;BME280;4185;41.506;24.938;2023-04-04T07:02:26;92154.59;;;10.14;98.19
8294;BME280;4185;41.506;24.938;2023-04-04T07:04:53;92146.78;;;10.24;97.14
8294;BME280;4185;41.506;24.938;2023-04-04T07:07:21;92142.75;;;10.30;95.75
8294;BME280;4185;41.506;24.938;2023-04-04T07:09:49;92150.59;;;10.34;95.89
8294;BME280;4185;41.506;24.938;2023-04-04T07:12:16;92156.97;;;10.36;94.77
8294;BME280;4185;41.506;24.938;2023-04-04T07:14:43;92152.25;;;10.37;94.15
8294;BME280;4185;41.506;24.938;2023-04-04T07:17:10;92159.41;;;10.40;93.98
8294;BME280;4185;41.506;24.938;2023-04-04T07:19:36;92159.19;;;10.38;93.22
8294;BME280;4185;41.506;24.938;2023-04-04T07:22:03;92155.66;;;10.43;91.83
8294;BME280;4185;41.506;24.938;2023-04-04T07:24:31;92155.56;;;10.48;90.06
8294;BME280;4185;41.506;24.938;2023-04-04T07:26:58;92155.47;;;10.54;89.46
8294;BME280;4185;41.506;24.938;2023-04-04T07:29:25;92155.59;;;10.61;90.45
8294;BME280;4185;41.506;24.938;2023-04-04T07:31:53;92152.16;;;10.61;89.47
8294;BME280;4185;41.506;24.938;2023-04-04T07:34:20;92150.25;;;10.56;88.69
8294;BME280;4185;41.506;24.938;2023-04-04T07:36:46;92161.84;;;10.56;88.35
8294;BME280;4185;41.506;24.938;2023-04-04T07:39:13;92161.56;;;10.60;89.51
8294;BME280;4185;41.506;24.938;2023-04-04T07:41:42;92152.59;;;10.65;88.27
8294;BME280;4185;41.506;24.938;2023-04-04T07:44:09;92151.97;;;10.72;86.57
8294;BME280;4185;41.506;24.938;2023-04-04T07:46:36;92151.78;;;10.83;86.74
8294;BME280;4185;41.506;24.938;2023-04-04T07:49:03;92150.75;;;10.86;85.28
8294;BME280;4185;41.506;24.938;2023-04-04T07:51:30;92154.13;;;10.92;84.36
8294;BME280;4185;41.506;24.938;2023-04-04T07:53:57;92146.59;;;10.98;82.63
8294;BME280;4185;41.506;24.938;2023-04-04T07:56:23;92152.47;;;11.15;80.38
8294;BME280;4185;41.506;24.938;2023-04-04T07:58:51;92146.00;;;11.31;81.10
8294;BME280;4185;41.506;24.938;2023-04-04T08:01:18;92157.09;;;11.46;80.08
8294;BME280;4185;41.506;24.938;2023-04-04T08:03:45;92152.28;;;11.52;79.44
8294;BME280;4185;41.506;24.938;2023-04-04T08:06:12;92150.38;;;11.47;79.78
8294;BME280;4185;41.506;24.938;2023-04-04T08:08:39;92146.31;;;11.28;78.50
8294;BME280;4185;41.506;24.938;2023-04-04T08:11:07;92142.88;;;11.14;79.52
8294;BME280;4185;41.506;24.938;2023-04-04T08:13:34;92139.19;;;11.12;78.65
8294;BME280;4185;41.506;24.938;2023-04-04T08:16:02;92138.78;;;11.07;78.31
8294;BME280;4185;41.506;24.938;2023-04-04T08:18:29;92137.00;;;11.10;78.61
8294;BME280;4185;41.506;24.938;2023-04-04T08:20:56;92129.50;;;11.16;78.88
8294;BME280;4185;41.506;24.938;2023-04-04T08:23:22;92127.09;;;11.26;78.18
8294;BME280;4185;41.506;24.938;2023-04-04T08:25:49;92128.34;;;11.38;77.55
8294;BME280;4185;41.506;24.938;2023-04-04T08:28:16;92138.28;;;11.48;77.00
8294;BME280;4185;41.506;24.938;2023-04-04T08:30:43;92136.59;;;11.58;77.90
8294;BME280;4185;41.506;24.938;2023-04-04T08:33:11;92141.09;;;11.69;78.93
8294;BME280;4185;41.506;24.938;2023-04-04T08:35:38;92138.69;;;11.78;78.37
8294;BME280;4185;41.506;24.938;2023-04-04T08:38:05;92145.91;;;11.89;77.68
8294;BME280;4185;41.506;24.938;2023-04-04T08:40:32;92145.97;;;11.96;74.85
8294;BME280;4185;41.506;24.938;2023-04-04T08:43:00;92150.00;;;12.16;74.33
8294;BME280;4185;41.506;24.938;2023-04-04T08:45:28;92148.19;;;12.32;73.25
8294;BME280;4185;41.506;24.938;2023-04-04T08:47:57;92149.94;;;12.42;69.62
8294;BME280;4185;41.506;24.938;2023-04-04T08:50:26;92147.72;;;12.41;68.83
8294;BME280;4185;41.506;24.938;2023-04-04T08:52:55;92146.66;;;12.44;69.94
8294;BME280;4185;41.506;24.938;2023-04-04T08:55:24;92155.25;;;12.48;68.74
8294;BME280;4185;41.506;24.938;2023-04-04T08:57:51;92153.97;;;12.49;67.91
8294;BME280;4185;41.506;24.938;2023-04-04T09:00:18;92151.91;;;12.42;68.85
8294;BME280;4185;41.506;24.938;2023-04-04T09:02:52;92136.03;;;12.33;69.20
8294;BME280;4185;41.506;24.938;2023-04-04T09:05:21;92158.84;;;12.43;68.61
8294;BME280;4185;41.506;24.938;2023-04-04T09:07:52;92156.91;;;12.51;68.08
8294;BME280;4185;41.506;24.938;2023-04-04T09:10:19;92146.09;;;12.58;65.83
8294;BME280;4185;41.506;24.938;2023-04-04T09:12:50;92150.53;;;12.69;67.02
8294;BME280;4185;41.506;24.938;2023-04-04T09:15:16;92147.28;;;12.70;67.35
8294;BME280;4185;41.506;24.938;2023-04-04T09:17:43;92153.59;;;12.86;65.16
8294;BME280;4185;41.506;24.938;2023-04-04T09:20:35;92141.06;;;13.03;65.37
8294;BME280;4185;41.506;24.938;2023-04-04T09:23:06;92144.38;;;13.09;65.43
8294;BME280;4185;41.506;24.938;2023-04-04T09:25:34;92138.31;;;13.24;67.26
8294;BME280;4185;41.506;24.938;2023-04-04T09:28:01;92135.50;;;13.37;66.38
8294;BME280;4185;41.506;24.938;2023-04-04T09:30:30;92144.75;;;13.34;65.00
8294;BME280;4185;41.506;24.938;2023-04-04T09:33:00;92137.28;;;13.34;65.76
8294;BME280;4185;41.506;24.938;2023-04-04T09:35:27;92128.59;;;13.36;66.64
8294;BME280;4185;41.506;24.938;2023-04-04T09:37:55;92131.25;;;13.28;64.40
8294;BME280;4185;41.506;24.938;2023-04-04T09:40:23;92137.00;;;13.17;64.12
8294;BME280;4185;41.506;24.938;2023-04-04T09:42:53;92136.06;;;13.15;64.86
8294;BME280;4185;41.506;24.938;2023-04-04T09:45:22;92136.59;;;13.13;65.48
8294;BME280;4185;41.506;24.938;2023-04-04T09:47:51;92130.19;;;13.11;64.42
8294;BME280;4185;41.506;24.938;2023-04-04T09:50:20;92135.66;;;13.11;65.20
8294;BME280;4185;41.506;24.938;2023-04-04T09:52:48;92139.84;;;13.12;64.36
8294;BME280;4185;41.506;24.938;2023-04-04T09:55:15;92129.28;;;13.08;63.19
8294;BME280;4185;41.506;24.938;2023-04-04T09:57:45;92136.41;;;13.11;64.37
8294;BME280;4185;41.506;24.938;2023-04-04T10:00:18;92132.78;;;13.16;64.37
8294;BME280;4185;41.506;24.938;2023-04-04T10:02:46;92146.28;;;13.22;64.32
8294;BME280;4185;41.506;24.938;2023-04-04T10:05:14;92143.44;;;13.27;63.48
8294;BME280;4185;41.506;24.938;2023-04-04T10:07:42;92140.72;;;13.27;63.11
8294;BME280;4185;41.506;24.938;2023-04-04T10:10:12;92150.66;;;13.25;60.85
8294;BME280;4185;41.506;24.938;2023-04-04T10:12:39;92142.28;;;13.23;60.69
8294;BME280;4185;41.506;24.938;2023-04-04T10:15:09;92137.91;;;13.20;59.11
8294;BME280;4185;41.506;24.938;2023-04-04T10:17:37;92148.09;;;13.19;60.42
8294;BME280;4185;41.506;24.938;2023-04-04T10:20:06;92144.78;;;13.13;63.36
8294;BME280;4185;41.506;24.938;2023-04-04T10:22:34;92141.81;;;13.04;65.05
8294;BME280;4185;41.506;24.938;2023-04-04T10:25:01;92149.09;;;12.88;66.17
8294;BME280;4185;41.506;24.938;2023-04-04T10:27:30;92160.56;;;12.74;65.77
8294;BME280;4185;41.506;24.938;2023-04-04T10:29:57;92157.47;;;12.70;67.39
8294;BME280;4185;41.506;24.938;2023-04-04T10:32:34;92159.25;;;12.67;69.76
8294;BME280;4185;41.506;24.938;2023-04-04T10:35:06;92156.41;;;12.73;70.92
8294;BME280;4185;41.506;24.938;2023-04-04T10:37:38;92151.94;;;12.83;69.40
8294;BME280;4185;41.506;24.938;2023-04-04T10:40:10;92153.34;;;12.97;67.42
8294;BME280;4185;41.506;24.938;2023-04-04T10:42:41;92137.34;;;13.14;68.53
8294;BME280;4185;41.506;24.938;2023-04-04T10:45:10;92147.06;;;13.30;67.91
8294;BME280;4185;41.506;24.938;2023-04-04T10:47:41;92135.88;;;13.41;65.84
8294;BME280;4185;41.506;24.938;2023-04-04T10:50:08;92130.19;;;13.60;69.19
8294;BME280;4185;41.506;24.938;2023-04-04T10:52:37;92131.69;;;13.76;67.85
8294;BME280;4185;41.506;24.938;2023-04-04T10:55:06;92128.69;;;13.94;67.37
8294;BME280;4185;41.506;24.938;2023-04-04T10:57:36;92131.47;;;14.09;69.16
8294;BME280;4185;41.506;24.938;2023-04-04T11:00:08;92129.66;;;14.04;66.72
8294;BME280;4185;41.506;24.938;2023-04-04T11:02:45;92127.53;;;13.82;65.21
8294;BME280;4185;41.506;24.938;2023-04-04T11:05:17;92124.75;;;13.67;67.29
8294;BME280;4185;41.506;24.938;2023-04-04T11:07:45;92126.13;;;13.53;66.13
8294;BME280;4185;41.506;24.938;2023-04-04T11:10:13;92126.81;;;13.46;67.62
8294;BME280;4185;41.506;24.938;2023-04-04T11:12:44;92126.09;;;13.45;69.39
8294;BME280;4185;41.506;24.938;2023-04-04T11:15:13;92120.56;;;13.38;67.66
8294;BME280;4185;41.506;24.938;2023-04-04T11:17:54;92130.78;;;13.37;66.96
8294;BME280;4185;41.506;24.938;2023-04-04T11:20:22;92136.56;;;13.34;68.45
8294;BME280;4185;41.506;24.938;2023-04-04T11:22:50;92125.66;;;13.34;68.65
8294;BME280;4185;41.506;24.938;2023-04-04T11:25:31;92131.81;;;13.34;69.61
8294;BME280;4185;41.506;24.938;2023-04-04T11:27:58;92135.63;;;13.31;68.52
8294;BME280;4185;41.506;24.938;2023-04-04T11:30:29;92138.13;;;13.22;68.59
8294;BME280;4185;41.506;24.938;2023-04-04T11:32:58;92140.41;;;13.10;67.56
8294;BME280;4185;41.506;24.938;2023-04-04T11:35:25;92139.25;;;13.06;66.48
8294;BME280;4185;41.506;24.938;2023-04-04T11:37:59;92160.78;;;12.96;67.77
8294;BME280;4185;41.506;24.938;2023-04-04T11:40:36;92172.13;;;12.67;67.16
8294;BME280;4185;41.506;24.938;2023-04-04T11:43:06;92178.75;;;12.24;69.43
8294;BME280;4185;41.506;24.938;2023-04-04T11:45:34;92182.22;;;11.78;71.88
8294;BME280;4185;41.506;24.938;2023-04-04T11:48:04;92183.66;;;11.53;73.98
8294;BME280;4185;41.506;24.938;2023-04-04T11:50:35;92176.75;;;11.52;76.23
8294;BME280;4185;41.506;24.938;2023-04-04T11:53:05;92171.53;;;11.67;78.07
8294;BME280;4185;41.506;24.938;2023-04-04T11:55:32;92181.97;;;11.89;77.45
8294;BME280;4185;41.506;24.938;2023-04-04T11:58:07;92172.50;;;12.16;78.52
8294;BME280;4185;41.506;24.938;2023-04-04T12:00:34;92169.72;;;12.43;81.01
8294;BME280;4185;41.506;24.938;2023-04-04T12:03:05;92174.66;;;12.65;75.66
8294;BME280;4185;41.506;24.938;2023-04-04T12:05:35;92177.53;;;12.80;73.56
8294;BME280;4185;41.506;24.938;2023-04-04T12:08:04;92170.75;;;12.94;74.94
8294;BME280;4185;41.506;24.938;2023-04-04T12:10:34;92173.28;;;13.12;76.74
8294;BME280;4185;41.506;24.938;2023-04-04T12:13:01;92166.44;;;13.19;75.20
8294;BME280;4185;41.506;24.938;2023-04-04T12:15:32;92164.97;;;13.18;76.78
8294;BME280;4185;41.506;24.938;2023-04-04T12:17:59;92164.19;;;13.10;79.41
8294;BME280;4185;41.506;24.938;2023-04-04T12:20:28;92169.38;;;13.00;80.26
8294;BME280;4185;41.506;24.938;2023-04-04T12:22:56;92164.25;;;12.97;80.09
8294;BME280;4185;41.506;24.938;2023-04-04T12:25:23;92160.69;;;12.89;80.76
8294;BME280;4185;41.506;24.938;2023-04-04T12:27:53;92169.56;;;12.82;80.14
8294;BME280;4185;41.506;24.938;2023-04-04T12:30:20;92170.44;;;12.77;80.46
8294;BME280;4185;41.506;24.938;2023-04-04T12:32:48;92157.84;;;12.74;79.85
8294;BME280;4185;41.506;24.938;2023-04-04T12:35:16;92152.59;;;12.76;80.33
8294;BME280;4185;41.506;24.938;2023-04-04T12:37:58;92148.03;;;12.71;80.82
8294;BME280;4185;41.506;24.938;2023-04-04T12:40:28;92144.88;;;12.67;79.05
8294;BME280;4185;41.506;24.938;2023-04-04T12:42:58;92150.47;;;12.61;79.88
8294;BME280;4185;41.506;24.938;2023-04-04T12:45:25;92158.50;;;12.67;80.26
8294;BME280;4185;41.506;24.938;2023-04-04T12:47:52;92159.56;;;12.64;79.62
8294;BME280;4185;41.506;24.938;2023-04-04T12:50:21;92151.19;;;12.62;79.88
8294;BME280;4185;41.506;24.938;2023-04-04T12:52:50;92154.88;;;12.64;81.58
8294;BME280;4185;41.506;24.938;2023-04-04T12:55:21;92143.63;;;12.68;80.25
8294;BME280;4185;41.506;24.938;2023-04-04T12:57:48;92154.59;;;12.75;80.70
8294;BME280;4185;41.506;24.938;2023-04-04T13:00:16;92157.84;;;12.74;81.31
8294;BME280;4185;41.506;24.938;2023-04-04T13:02:48;92154.59;;;12.75;80.95
8294;BME280;4185;41.506;24.938;2023-04-04T13:05:15;92150.22;;;12.72;80.24
8294;BME280;4185;41.506;24.938;2023-04-04T13:07:43;92151.59;;;12.66;80.66
8294;BME280;4185;41.506;24.938;2023-04-04T13:10:12;92158.88;;;12.63;80.66
8294;BME280;4185;41.506;24.938;2023-04-04T13:12:57;92157.06;;;12.66;80.64
8294;BME280;4185;41.506;24.938;2023-04-04T13:15:47;92152.69;;;12.63;80.53